シュトゥットガルト の空港の天気 - METARとTAF

シュトゥットガルト空港 ( EDDS / STR ) - ドイツ シュトゥットガルト
飛行場実況気象(Metar)
観測時間02/05 20:50 CET (02/05 19:50 UTC)
風向・風速北 4m/s
視程10km以上
天気現象
全天を覆う雲 雲底高度 180m
気温2℃
湿度93%
気圧1034hPa
METAREDDS 051950Z AUTO 35008KT 9999 OVC006 02/01 Q1034 NOSIG
過去の天気等 Google飛行場航空写真 Wunderground天気予報

過去48時間のMETAR

飛行場予報(TAF)
発表時間: 2/05 18:00 CET (2/05 17:00 UTC)
予報対象時間: 5日19時 CET ~ 6日19時 CET
風向・風速北北東 2m/s
視程10km以上
全天の8割程度の雲 雲底高度 240m
5日19時 CET ~ 6日11時 CET に一時的に
視程4000m
天気現象弱い雨霧雨
全天の8割程度の雲 雲底高度 120m
6日11時 CET ~ 6日15時 CET に徐々に
全天の8割程度の雲 雲底高度 460m
6日17時 CET ~ 6日19時 CET に 確率 30% で一時的に
視程4000m
天気現象弱い雪
全天の8割程度の雲 雲底高度 370m
TAF EDDS 051700Z 0518/0618 02004KT 9999 BKN008
TEMPO 0518/0610 4000 -RADZ BKN004
BECMG 0610/0614 BKN015
PROB30 TEMPO 0616/0618 4000 -SN BKN012